Аэропорт: Львов имени Даниила Галицкого. Львов

ICAO: UKLL

METAR:
2021-01-24 18:30:00
UKLL 241830Z 32004MPS 9999 SCT032CB BKN032 02/01 Q0999 R31/190070 NOSIG
METAR:
2021-01-24 17:02:00
TAF UKLL 241702Z 2418/2518 VRB01MPS 2100 BR SCT004 BKN007 SCT025CB TX04/2418Z TNM02/2518Z TEMPO 2420/2506 07004MPS 0400 FG SCT002 TEMPO 2506/2514 08004MPS 0500 +SHRASN BKN002 BKN015CB BECMG 2514/2515 27006G12MPS TEMPO 2515/2518 26008G14MPS 1100 -SHSN BR BKN003 BKN015CB